Yasny, Russia
Current Conditions -  °F | °C
As of 10:00 AM on Tuesday 21 Oct 2014 (Local Time) from UWOR Reporting Station
Overcast Overcast  
Wind Chill: 21°   Ceiling: 1100
Heat Index: 32°   Visibility: 6mi
Dew Point: 28°   Wind: 18mph
Humidity: 87%   Direction: 180°S
Pressure: 29.85"   Gusts: 29mph
Location:  51°N, 59.53°E
Report Text: UWOR 210500Z 18008G13MPS 9999 OVC011CB M00/M02 Q1011 25590345NOSIG RMK QFE734/0979
Loading
Personal Weather Stations






























Interactive Weather Map
Tropical Storm Tracking
New forecast layout! Learn more

10-Day Weather Forecast

Advertisements
Track Severe Weather on mobile